createdAt,value
2019-05-25T00:01:57.827Z,100911.00
2019-05-25T00:04:27.888Z,100911.05
2019-05-25T00:06:57.984Z,100917.11
2019-05-25T00:09:28.046Z,100915.99
2019-05-25T00:11:58.166Z,100922.06
2019-05-25T00:14:28.252Z,100915.97
2019-05-25T00:16:58.359Z,100917.48
2019-05-25T00:19:28.437Z,100923.23
2019-05-25T00:21:58.582Z,100926.13
2019-05-25T00:24:28.643Z,100925.09
2019-05-25T00:26:58.770Z,100926.16
2019-05-25T00:29:28.856Z,100930.49
2019-05-25T00:31:58.924Z,100924.69
2019-05-25T00:34:29.019Z,100926.42
2019-05-25T00:36:59.190Z,100924.39
2019-05-25T00:39:29.247Z,100921.41
2019-05-25T00:41:59.347Z,100921.66
2019-05-25T00:44:29.953Z,100922.48
2019-05-25T00:46:59.995Z,100919.53
2019-05-25T00:49:30.111Z,100920.73
2019-05-25T00:52:00.224Z,100924.40
2019-05-25T00:54:30.399Z,100922.97
2019-05-25T00:57:00.490Z,100928.67
2019-05-25T00:59:30.640Z,100929.27
2019-05-25T01:02:00.667Z,100924.88
2019-05-25T01:04:30.737Z,100921.34
2019-05-25T01:07:00.879Z,100927.94
2019-05-25T01:09:30.939Z,100926.79
2019-05-25T01:12:01.211Z,100932.45
2019-05-25T01:14:31.284Z,100937.19
2019-05-25T01:17:01.414Z,100931.19
2019-05-25T01:19:31.533Z,100927.59
2019-05-25T01:22:01.595Z,100931.84
2019-05-25T01:24:44.035Z,100934.42
2019-05-25T01:27:03.497Z,100930.09
2019-05-25T01:29:33.582Z,100930.11
2019-05-25T01:32:03.671Z,100930.11
2019-05-25T01:34:33.740Z,100931.00
2019-05-25T01:37:03.846Z,100931.44
2019-05-25T01:39:33.927Z,100929.21
2019-05-25T01:42:04.049Z,100926.38
2019-05-25T01:44:34.485Z,100931.66
2019-05-25T01:47:04.563Z,100930.70
2019-05-25T01:49:34.619Z,100932.99
2019-05-25T01:52:04.729Z,100931.48
2019-05-25T01:54:34.815Z,100936.30
2019-05-25T01:57:04.890Z,100938.39
2019-05-25T01:59:34.957Z,100935.75
2019-05-25T02:02:05.061Z,100940.97
2019-05-25T02:04:35.185Z,100936.59
2019-05-25T02:07:05.360Z,100927.99
2019-05-25T02:09:35.430Z,100931.84
2019-05-25T02:12:05.686Z,100931.19
2019-05-25T02:14:35.761Z,100924.27
2019-05-25T02:17:05.983Z,100928.24
2019-05-25T02:19:36.083Z,100928.24
2019-05-25T02:22:06.215Z,100922.06
2019-05-25T02:24:36.300Z,100937.48
2019-05-25T02:27:06.386Z,100939.16
2019-05-25T02:29:36.459Z,100936.42
2019-05-25T02:32:06.571Z,100937.00
2019-05-25T02:34:36.630Z,100939.58
2019-05-25T02:37:06.696Z,100932.63
2019-05-25T02:39:36.793Z,100936.75
2019-05-25T02:42:06.882Z,100932.14
2019-05-25T02:44:36.955Z,100928.34
2019-05-25T02:47:07.024Z,100936.75
2019-05-25T02:49:37.103Z,100935.08
2019-05-25T02:52:07.302Z,100938.01
2019-05-25T02:54:37.421Z,100933.69
2019-05-25T02:57:07.611Z,100937.81
2019-05-25T02:59:37.673Z,100937.72
2019-05-25T03:02:07.755Z,100937.81
2019-05-25T03:04:37.896Z,100936.93
2019-05-25T03:07:08.677Z,100936.14
2019-05-25T03:09:40.958Z,100941.78
2019-05-25T03:12:11.042Z,100942.20
2019-05-25T03:14:41.176Z,100946.16
2019-05-25T03:17:11.279Z,100941.87
2019-05-25T03:19:41.356Z,100941.03
2019-05-25T03:22:11.442Z,100948.16
2019-05-25T03:24:41.502Z,100944.61
2019-05-25T03:27:11.614Z,100947.16
2019-05-25T03:29:41.676Z,100956.81
2019-05-25T03:32:11.739Z,100953.34
2019-05-25T03:34:41.937Z,100955.08
2019-05-25T03:37:12.006Z,100953.34
2019-05-25T03:39:42.083Z,100958.30
2019-05-25T03:42:12.187Z,100955.56
2019-05-25T03:44:42.258Z,100962.09
2019-05-25T03:47:12.379Z,100960.45
2019-05-25T03:49:42.463Z,100964.16
2019-05-25T03:52:12.545Z,100972.02
2019-05-25T03:54:42.623Z,100968.55
2019-05-25T03:57:12.714Z,100972.41
2019-05-25T03:59:42.782Z,100974.88
2019-05-25T04:02:12.842Z,100978.25
2019-05-25T04:04:42.992Z,100971.70
2019-05-25T04:07:13.048Z,100973.82
2019-05-25T04:09:43.116Z,100972.55
2019-05-25T04:12:13.198Z,100977.13
2019-05-25T04:14:43.284Z,100979.66
2019-05-25T04:17:13.349Z,100975.86
2019-05-25T04:19:43.467Z,100976.90
2019-05-25T04:22:13.553Z,100975.69
2019-05-25T04:24:43.671Z,100973.77
2019-05-25T04:27:13.702Z,100978.52
2019-05-25T04:29:43.822Z,100983.27
2019-05-25T04:32:13.897Z,100981.11
2019-05-25T04:34:44.046Z,100982.05
2019-05-25T04:37:14.118Z,100982.78
2019-05-25T04:39:44.214Z,100985.42
2019-05-25T04:42:14.293Z,100988.67
2019-05-25T04:44:44.357Z,100993.52
2019-05-25T04:47:26.541Z,100992.20
2019-05-25T04:49:46.306Z,100997.72
2019-05-25T04:52:16.372Z,100998.55
2019-05-25T04:54:46.458Z,100998.29
2019-05-25T04:57:16.673Z,100998.34
2019-05-25T04:59:47.004Z,101000.80
2019-05-25T05:02:17.106Z,101001.29
2019-05-25T05:04:47.227Z,101008.31
2019-05-25T05:07:17.313Z,100999.23
2019-05-25T05:10:01.434Z,100990.47
2019-05-25T05:12:19.176Z,100993.36
2019-05-25T05:14:49.275Z,101003.03
2019-05-25T05:17:19.352Z,100996.07
2019-05-25T05:19:49.463Z,100999.77
2019-05-25T05:22:19.537Z,101000.80
2019-05-25T05:24:49.628Z,101000.62
2019-05-25T05:27:19.705Z,101005.00
2019-05-25T05:29:49.803Z,101003.01
2019-05-25T05:32:27.419Z,101009.70
2019-05-25T05:34:52.324Z,101008.88
2019-05-25T05:37:24.870Z,101007.20
2019-05-25T05:39:57.306Z,101012.47
2019-05-25T05:42:28.846Z,101013.92
2019-05-25T05:45:00.052Z,101010.94
2019-05-25T05:47:31.694Z,101018.45
2019-05-25T05:50:03.619Z,101017.14
2019-05-25T05:52:37.756Z,101015.48
2019-05-25T05:55:10.147Z,101018.78
2019-05-25T05:57:40.255Z,101023.58
2019-05-25T06:00:12.555Z,101020.16
2019-05-25T06:02:42.578Z,101014.62
2019-05-25T06:05:12.677Z,101026.45
2019-05-25T06:07:42.722Z,101026.95
2019-05-25T06:10:13.059Z,101025.67
2019-05-25T06:12:43.148Z,101029.39
2019-05-25T06:15:13.441Z,101034.33
2019-05-25T06:17:43.518Z,101037.86
2019-05-25T06:20:14.411Z,101043.30
2019-05-25T06:22:44.535Z,101040.48
2019-05-25T06:25:15.235Z,101047.70
2019-05-25T06:27:45.337Z,101046.09
2019-05-25T06:30:15.853Z,101048.60
2019-05-25T06:32:46.010Z,101039.19
2019-05-25T06:35:16.210Z,101038.42
2019-05-25T06:37:46.317Z,101047.98
2019-05-25T06:40:16.713Z,101047.48
2019-05-25T06:42:46.844Z,101045.30
2019-05-25T06:45:17.859Z,101051.15
2019-05-25T06:47:47.957Z,101055.67
2019-05-25T06:50:18.163Z,101058.05
2019-05-25T06:52:48.255Z,101062.63
2019-05-25T06:55:18.361Z,101053.34
2019-05-25T06:57:48.476Z,101060.31
2019-05-25T07:00:19.193Z,101062.83
2019-05-25T07:02:49.320Z,101062.58
2019-05-25T07:05:19.431Z,101063.63
2019-05-25T07:07:49.496Z,101066.44
2019-05-25T07:10:19.772Z,101062.41
2019-05-25T07:12:50.657Z,101063.73
2019-05-25T07:15:21.208Z,101063.65
2019-05-25T07:17:51.295Z,101056.78
2019-05-25T07:20:21.508Z,101053.30
2019-05-25T07:22:51.630Z,101059.28
2019-05-25T07:25:21.771Z,101059.48
2019-05-25T07:27:59.867Z,101064.37
2019-05-25T07:30:23.725Z,101065.83
2019-05-25T07:32:53.801Z,101069.62
2019-05-25T07:35:23.888Z,101071.67
2019-05-25T07:37:54.412Z,101071.77
2019-05-25T07:40:25.597Z,101064.50
2019-05-25T07:42:55.729Z,101066.38
2019-05-25T07:45:25.799Z,101067.59
2019-05-25T07:47:55.941Z,101067.74
2019-05-25T07:50:26.105Z,101068.39
2019-05-25T07:52:56.251Z,101069.59
2019-05-25T07:55:26.333Z,101075.94
2019-05-25T07:57:56.493Z,101084.67
2019-05-25T08:00:26.581Z,101080.91
2019-05-25T08:02:57.137Z,101077.16
2019-05-25T08:05:27.255Z,101087.44
2019-05-25T08:07:57.391Z,101077.40
2019-05-25T08:10:27.451Z,101080.49
2019-05-25T08:12:57.651Z,101082.88
2019-05-25T08:15:27.759Z,101084.13
2019-05-25T08:17:58.295Z,101086.62
2019-05-25T08:20:28.378Z,101092.53
2019-05-25T08:22:58.467Z,101091.42
2019-05-25T08:25:28.884Z,101095.84
2019-05-25T08:27:58.980Z,101097.34
2019-05-25T08:30:29.076Z,101095.23
2019-05-25T08:32:59.403Z,101100.38
2019-05-25T08:35:29.514Z,101099.90
2019-05-25T08:37:59.596Z,101104.80
2019-05-25T08:40:29.722Z,101106.36
2019-05-25T08:42:59.845Z,101112.83
2019-05-25T08:45:29.967Z,101109.09
2019-05-25T08:48:00.108Z,101113.69
2019-05-25T08:50:38.379Z,101122.20
2019-05-25T08:53:04.129Z,101119.00
2019-05-25T08:55:34.290Z,101123.58
2019-05-25T08:58:23.753Z,101129.03
2019-05-25T09:00:53.872Z,101126.77
2019-05-25T09:03:24.046Z,101125.19
2019-05-25T09:05:54.122Z,101121.47
2019-05-25T09:08:24.246Z,101123.78
2019-05-25T09:10:54.368Z,101137.28
2019-05-25T09:13:24.553Z,101148.30
2019-05-25T09:15:54.661Z,101136.79
2019-05-25T09:18:24.790Z,101138.74
2019-05-25T09:20:54.913Z,101150.58
2019-05-25T09:23:25.078Z,101144.60
2019-05-25T09:25:56.113Z,101144.12
2019-05-25T09:28:26.256Z,101144.88
2019-05-25T09:30:56.457Z,101153.56
2019-05-25T09:33:26.560Z,101154.98
2019-05-25T09:35:56.631Z,101151.34
2019-05-25T09:38:26.795Z,101150.00
2019-05-25T09:40:56.830Z,101158.13
2019-05-25T09:43:27.014Z,101162.62
2019-05-25T09:45:57.093Z,101159.72
2019-05-25T09:48:27.248Z,101152.23
2019-05-25T09:50:57.356Z,101163.88
2019-05-25T09:53:27.428Z,101163.53
2019-05-25T09:55:57.578Z,101166.61
2019-05-25T09:58:29.827Z,101163.81
2019-05-25T10:00:59.602Z,101157.41
2019-05-25T10:03:29.701Z,101152.37
2019-05-25T10:05:59.904Z,101160.46
2019-05-25T10:08:29.995Z,101154.89
2019-05-25T10:11:00.098Z,101154.22
2019-05-25T10:13:30.177Z,101154.18
2019-05-25T10:16:00.288Z,101158.25
2019-05-25T10:18:30.377Z,101155.87
2019-05-25T10:21:00.482Z,101155.13
2019-05-25T10:23:30.590Z,101157.77
2019-05-25T10:26:00.934Z,101155.69
2019-05-25T10:28:31.036Z,101152.32
2019-05-25T10:31:01.138Z,101145.66
2019-05-25T10:33:31.508Z,101144.86
2019-05-25T10:36:01.838Z,101151.26
2019-05-25T10:38:31.979Z,101149.03
2019-05-25T10:41:02.048Z,101147.48
2019-05-25T10:43:32.209Z,101149.57
2019-05-25T10:46:02.327Z,101141.69
2019-05-25T10:48:32.418Z,101135.61
2019-05-25T10:51:02.528Z,101131.11
2019-05-25T10:53:32.630Z,101145.23
2019-05-25T10:56:02.714Z,101149.41
2019-05-25T10:58:32.819Z,101146.28
2019-05-25T11:01:02.916Z,101137.95
2019-05-25T11:03:33.017Z,101137.02
2019-05-25T11:06:03.098Z,101140.56
2019-05-25T11:08:33.201Z,101150.05
2019-05-25T11:11:03.298Z,101149.48
2019-05-25T11:13:33.417Z,101153.17
2019-05-25T11:16:03.494Z,101149.25
2019-05-25T11:18:33.614Z,101148.17
2019-05-25T11:21:03.721Z,101153.54
2019-05-25T11:23:33.818Z,101155.09
2019-05-25T11:26:03.889Z,101151.03
2019-05-25T11:28:38.519Z,101143.69
2019-05-25T11:31:08.618Z,101148.92
2019-05-25T11:33:38.721Z,101159.52
2019-05-25T11:36:08.832Z,101149.92
2019-05-25T11:38:38.924Z,101150.86
2019-05-25T11:41:09.052Z,101142.20
2019-05-25T11:43:39.222Z,101157.86
2019-05-25T11:46:09.331Z,101157.97
2019-05-25T11:48:39.428Z,101159.00
2019-05-25T11:51:09.516Z,101146.39
2019-05-25T11:53:39.579Z,101157.19
2019-05-25T11:56:09.665Z,101153.59
2019-05-25T11:58:47.415Z,101158.80
2019-05-25T12:01:14.620Z,101152.37
2019-05-25T12:03:44.729Z,101169.66
2019-05-25T12:06:14.891Z,101156.51
2019-05-25T12:08:45.177Z,101166.13
2019-05-25T12:11:15.332Z,101167.89
2019-05-25T12:13:45.422Z,101153.13
2019-05-25T12:16:15.513Z,101153.80
2019-05-25T12:18:45.730Z,101149.49
2019-05-25T12:21:15.821Z,101146.09
2019-05-25T12:23:45.929Z,101150.98
2019-05-25T12:26:16.020Z,101148.63
2019-05-25T12:28:46.089Z,101151.40
2019-05-25T12:31:16.308Z,101146.25
2019-05-25T12:33:46.400Z,101149.37
2019-05-25T12:36:16.656Z,101147.59
2019-05-25T12:38:46.714Z,101144.02
2019-05-25T12:41:16.861Z,101149.24
2019-05-25T12:43:47.043Z,101150.09
2019-05-25T12:46:17.148Z,101152.05
2019-05-25T12:48:50.501Z,101159.50
2019-05-25T12:51:20.603Z,101150.31
2019-05-25T12:53:50.775Z,101156.56
2019-05-25T12:56:20.959Z,101156.38
2019-05-25T12:58:51.029Z,101156.93
2019-05-25T13:01:21.382Z,101146.59
2019-05-25T13:03:51.472Z,101154.11
2019-05-25T13:06:21.573Z,101159.47
2019-05-25T13:09:04.261Z,101156.16
2019-05-25T13:11:34.367Z,101156.33
2019-05-25T13:14:14.199Z,101163.03
2019-05-25T13:20:21.553Z,101167.40
2019-05-25T13:22:51.705Z,101171.33
2019-05-25T13:25:21.826Z,101172.93
2019-05-25T13:27:51.994Z,101174.08
2019-05-25T13:30:22.132Z,101179.69
2019-05-25T13:32:54.579Z,101184.97
2019-05-25T13:40:19.578Z,101184.11
2019-05-25T13:42:49.690Z,101189.06
2019-05-25T13:45:19.904Z,101197.59
2019-05-25T13:47:50.962Z,101191.82
2019-05-25T13:50:21.238Z,101185.95
2019-05-25T13:52:51.434Z,101199.58
2019-05-25T13:55:22.181Z,101189.71
2019-05-25T13:57:52.324Z,101190.58
2019-05-25T14:00:22.518Z,101189.77
2019-05-25T14:02:52.636Z,101194.45
2019-05-25T14:05:22.986Z,101198.59
2019-05-25T14:07:54.817Z,101198.45
2019-05-25T14:10:27.341Z,101198.30
2019-05-25T14:13:00.314Z,101195.67
2019-05-25T14:15:30.432Z,101193.55
2019-05-25T14:18:00.971Z,101189.22
2019-05-25T14:20:31.055Z,101188.31
2019-05-25T14:23:03.942Z,101189.55
2019-05-25T14:25:34.406Z,101188.19
2019-05-25T14:28:08.357Z,101186.16
2019-05-25T14:30:38.528Z,101187.14
2019-05-25T14:33:08.718Z,101189.75
2019-05-25T14:35:40.965Z,101178.79
2019-05-25T14:38:11.487Z,101189.06
2019-05-25T14:40:41.604Z,101184.78
2019-05-25T14:43:11.730Z,101187.56
2019-05-25T14:45:42.175Z,101180.22
2019-05-25T14:48:12.381Z,101183.58
2019-05-25T14:50:42.460Z,101183.17
2019-05-25T14:53:12.577Z,101185.23
2019-05-25T14:55:42.703Z,101185.92
2019-05-25T14:58:13.055Z,101191.73
2019-05-25T15:00:43.269Z,101184.31
2019-05-25T15:03:13.339Z,101189.34
2019-05-25T15:05:43.595Z,101183.06
2019-05-25T15:08:13.749Z,101183.46
2019-05-25T15:10:44.261Z,101174.78
2019-05-25T15:13:14.974Z,101181.60
2019-05-25T15:15:45.056Z,101182.52
2019-05-25T15:18:15.186Z,101192.98
2019-05-25T15:20:48.589Z,101181.91
2019-05-25T15:23:19.541Z,101177.13
2019-05-25T15:25:49.999Z,101162.42
2019-05-25T15:28:20.131Z,101173.39
2019-05-25T15:30:50.285Z,101178.27
2019-05-25T15:33:20.477Z,101176.89
2019-05-25T15:35:50.664Z,101174.39
2019-05-25T15:38:21.325Z,101172.84
2019-05-25T15:40:51.547Z,101173.25
2019-05-25T15:43:21.889Z,101174.17
2019-05-25T15:45:52.006Z,101180.25
2019-05-25T15:48:25.626Z,101173.16
2019-05-25T15:50:54.419Z,101175.05
2019-05-25T15:53:24.504Z,101172.92
2019-05-25T15:55:54.625Z,101176.27
2019-05-25T15:58:24.709Z,101175.66
2019-05-25T16:00:56.475Z,101172.90
2019-05-25T16:03:26.724Z,101174.41
2019-05-25T16:05:57.102Z,101171.99
2019-05-25T16:08:27.234Z,101174.44
2019-05-25T16:11:01.937Z,101181.65
2019-05-25T16:13:32.137Z,101185.50
2019-05-25T16:16:02.354Z,101184.39
2019-05-25T16:18:32.454Z,101189.39
2019-05-25T16:21:02.768Z,101181.55
2019-05-25T16:23:32.884Z,101191.15
2019-05-25T16:26:03.139Z,101187.42
2019-05-25T16:28:39.594Z,101188.38
2019-05-25T16:31:09.763Z,101191.55
2019-05-25T16:33:40.047Z,101193.19
2019-05-25T16:36:10.129Z,101193.78
2019-05-25T16:38:40.352Z,101195.23
2019-05-25T16:41:10.449Z,101192.46
2019-05-25T16:43:40.831Z,101188.12
2019-05-25T16:46:11.071Z,101186.65
2019-05-25T16:48:41.249Z,101181.55
2019-05-25T16:51:11.398Z,101181.84
2019-05-25T16:53:41.496Z,101180.51
2019-05-25T16:56:11.588Z,101182.16
2019-05-25T16:58:41.710Z,101184.90
2019-05-25T17:01:11.815Z,101173.59
2019-05-25T17:03:41.911Z,101169.95
2019-05-25T17:06:12.041Z,101176.55
2019-05-25T17:08:42.159Z,101171.66
2019-05-25T17:11:12.317Z,101171.38
2019-05-25T17:13:42.415Z,101174.16
2019-05-25T17:16:12.505Z,101161.33
2019-05-25T17:18:42.624Z,101159.44
2019-05-25T17:21:12.819Z,101157.12
2019-05-25T17:23:42.981Z,101161.70
2019-05-25T17:26:13.129Z,101165.42
2019-05-25T17:28:43.236Z,101164.73
2019-05-25T17:31:13.374Z,101161.61
2019-05-25T17:33:46.434Z,101172.30
2019-05-25T17:36:15.328Z,101167.41
2019-05-25T17:38:45.447Z,101165.33
2019-05-25T17:41:15.621Z,101177.11
2019-05-25T17:43:45.765Z,101172.92
2019-05-25T17:46:34.930Z,101169.80
2019-05-25T17:49:05.085Z,101167.86
2019-05-25T17:51:35.191Z,101160.73
2019-05-25T17:54:05.704Z,101158.69
2019-05-25T17:56:35.926Z,101161.08
2019-05-25T17:59:06.053Z,101164.86
2019-05-25T18:01:36.273Z,101162.07
2019-05-25T18:04:07.832Z,101170.98
2019-05-25T18:06:38.408Z,101162.55
2019-05-25T18:09:08.919Z,101171.23
2019-05-25T18:11:39.077Z,101160.42
2019-05-25T18:14:09.215Z,101164.87
2019-05-25T18:16:39.624Z,101163.19
2019-05-25T18:19:09.719Z,101167.33
2019-05-25T18:21:39.841Z,101166.27
2019-05-25T18:24:09.980Z,101171.92
2019-05-25T18:26:40.093Z,101165.41
2019-05-25T18:29:10.268Z,101171.15
2019-05-25T18:31:40.453Z,101167.52
2019-05-25T18:34:21.787Z,101171.15
2019-05-25T18:36:42.618Z,101171.52
2019-05-25T18:39:13.131Z,101169.85
2019-05-25T18:41:43.234Z,101171.28
2019-05-25T18:44:13.348Z,101174.78
2019-05-25T18:46:43.735Z,101169.69
2019-05-25T18:49:13.880Z,101164.08
2019-05-25T18:51:44.016Z,101164.89
2019-05-25T18:54:14.126Z,101158.52
2019-05-25T18:56:44.313Z,101164.66
2019-05-25T18:59:14.657Z,101159.42
2019-05-25T19:01:44.979Z,101167.36
2019-05-25T19:04:15.275Z,101165.78
2019-05-25T19:06:45.387Z,101172.30
2019-05-25T19:09:15.509Z,101176.37
2019-05-25T19:11:45.662Z,101180.05
2019-05-25T19:14:15.909Z,101175.70
2019-05-25T19:16:46.017Z,101179.25
2019-05-25T19:19:16.125Z,101177.09
2019-05-25T19:21:46.316Z,101176.73
2019-05-25T19:24:16.445Z,101185.73
2019-05-25T19:26:46.574Z,101186.73
2019-05-25T19:29:17.176Z,101195.21
2019-05-25T19:31:47.266Z,101195.61
2019-05-25T19:34:17.474Z,101189.75
2019-05-25T19:36:47.674Z,101194.57
2019-05-25T19:39:17.802Z,101190.72
2019-05-25T19:41:48.088Z,101186.53
2019-05-25T19:44:18.217Z,101192.92
2019-05-25T19:46:48.344Z,101190.23
2019-05-25T19:49:18.516Z,101195.41
2019-05-25T19:51:48.668Z,101192.44
2019-05-25T19:54:18.794Z,101186.53
2019-05-25T19:56:49.036Z,101186.05
2019-05-25T19:59:19.319Z,101179.77
2019-05-25T20:01:49.502Z,101180.66
2019-05-25T20:04:19.636Z,101186.05
2019-05-25T20:06:49.778Z,101187.38
2019-05-25T20:09:19.945Z,101185.48
2019-05-25T20:11:50.108Z,101185.95
2019-05-25T20:14:21.388Z,101188.60
2019-05-25T20:16:51.542Z,101194.73
2019-05-25T20:19:21.683Z,101184.80
2019-05-25T20:21:51.818Z,101184.17
2019-05-25T20:24:22.081Z,101190.93
2019-05-25T20:26:52.201Z,101189.17
2019-05-25T20:29:22.309Z,101185.64
2019-05-25T20:31:52.457Z,101180.42
2019-05-25T20:34:22.608Z,101173.55
2019-05-25T20:36:52.753Z,101169.27
2019-05-25T20:39:22.859Z,101175.70
2019-05-25T20:41:53.132Z,101170.51
2019-05-25T20:44:23.267Z,101171.98
2019-05-25T20:46:53.330Z,101176.19
2019-05-25T20:49:23.448Z,101171.33
2019-05-25T20:51:53.819Z,101166.14
2019-05-25T20:54:24.131Z,101165.91
2019-05-25T20:56:54.252Z,101157.24
2019-05-25T20:59:24.467Z,101162.81
2019-05-25T21:01:54.528Z,101165.63
2019-05-25T21:04:24.667Z,101165.77
2019-05-25T21:06:54.784Z,101163.72
2019-05-25T21:09:24.972Z,101160.78
2019-05-25T21:11:56.215Z,101155.22
2019-05-25T21:14:26.646Z,101161.05
2019-05-25T21:16:56.916Z,101148.87
2019-05-25T21:19:26.991Z,101156.73
2019-05-25T21:21:57.220Z,101155.89
2019-05-25T21:24:27.453Z,101156.86
2019-05-25T21:26:57.571Z,101164.97
2019-05-25T21:29:27.679Z,101160.75
2019-05-25T21:31:57.785Z,101152.02
2019-05-25T21:34:27.927Z,101151.98
2019-05-25T21:36:58.034Z,101152.99
2019-05-25T21:39:28.103Z,101149.47
2019-05-25T21:41:58.223Z,101145.89
2019-05-25T21:44:28.319Z,101160.75
2019-05-25T21:46:58.592Z,101154.04
2019-05-25T21:49:28.745Z,101150.00
2019-05-25T21:52:03.627Z,101152.72
2019-05-25T21:54:33.784Z,101149.35
2019-05-25T21:57:13.504Z,101152.72
2019-05-25T21:59:43.668Z,101155.78
2019-05-25T22:02:14.664Z,101152.56
2019-05-25T22:04:49.691Z,101153.73
2019-05-25T22:07:28.093Z,101145.04
2019-05-25T22:09:58.270Z,101138.72
2019-05-25T22:12:28.823Z,101135.80
2019-05-25T22:14:59.118Z,101135.80
2019-05-25T22:17:29.216Z,101125.76
2019-05-25T22:19:59.537Z,101128.36
2019-05-25T22:22:32.781Z,101129.78
2019-05-25T22:25:02.904Z,101131.09
2019-05-25T22:27:33.207Z,101131.66
2019-05-25T22:30:03.313Z,101127.25
2019-05-25T22:32:33.545Z,101132.59
2019-05-25T22:35:03.880Z,101131.80
2019-05-25T22:37:33.973Z,101127.06
2019-05-25T22:40:04.319Z,101125.84
2019-05-25T22:42:34.403Z,101122.39
2019-05-25T22:45:04.648Z,101117.95
2019-05-25T22:47:34.737Z,101113.73
2019-05-25T22:50:05.707Z,101109.72
2019-05-25T22:52:35.811Z,101105.23
2019-05-25T22:55:06.652Z,101096.88
2019-05-25T22:57:36.756Z,101096.55
2019-05-25T23:00:08.480Z,101096.22
2019-05-25T23:02:38.678Z,101090.06
2019-05-25T23:05:09.364Z,101089.61
2019-05-25T23:07:39.475Z,101093.09
2019-05-25T23:10:09.936Z,101090.06
2019-05-25T23:12:40.048Z,101092.73
2019-05-25T23:15:10.632Z,101088.36
2019-05-25T23:17:40.749Z,101079.17
2019-05-25T23:20:11.111Z,101091.09
2019-05-25T23:22:41.182Z,101084.27
2019-05-25T23:25:11.415Z,101089.28
2019-05-25T23:27:41.484Z,101083.61
2019-05-25T23:30:12.319Z,101078.34
2019-05-25T23:32:42.363Z,101073.55
2019-05-25T23:35:12.440Z,101078.84
2019-05-25T23:37:42.526Z,101077.98
2019-05-25T23:40:12.875Z,101077.06
2019-05-25T23:42:42.992Z,101063.02
2019-05-25T23:45:15.520Z,101070.09
2019-05-25T23:47:45.535Z,101063.97
2019-05-25T23:50:15.845Z,101056.20
2019-05-25T23:52:45.924Z,101056.53
2019-05-25T23:55:16.340Z,101049.56
2019-05-25T23:57:46.408Z,101051.83
